Flight Track Log - Related Links

Times and Time Zones

All times are in EDT time to prevent confusion due to time zone crossing. See the UAL3787 flight status page for this flight to view local times or setup timezone preferences in your user account.

Time Position Orientation Groundspeed Altitude Reporting Facility
EDT Latitude Longitude Course Direction KTS MPH feet Rate Location/Type
Mon 12:15:29 PM 39.3000 -94.7333 45° Northeast 165 190 1,600  Level Kansas City TRACON
Mon 12:15:47 PM 39.2833 -94.7333 180° South 157 181 2,200 2,231 Climbing Kansas City TRACON
Mon 12:16:47 PM 39.2333 -94.7167 166° South 203 234 4,500 2,138 Climbing Kansas City TRACON
Mon 12:17:14 PM 39.2119 -94.7197 186° South 198 228 5,300 2,225 Climbing Kansas City Center
Mon 12:18:16 PM 39.1947 -94.6439 106° East 262 302 7,800 2,274 Climbing Kansas City Center
Mon 12:19:00 PM 39.5553 -94.3765 45° Northeast  Level FlightAware Approximate
Mon 12:19:18 PM 39.2550 -94.5794 40° Northeast 302 348 10,000  Level Kansas City Center
Mon 12:20:00 PM 39.6290 -94.2819 45° Northeast  Level FlightAware Approximate
Mon 12:20:19 PM 39.3453 -94.5014 34° Northeast 357 411 11,800  Level Kansas City Center
Mon 12:21:21 PM 39.4289 -94.4289 34° Northeast 378 435 13,700 1,984 Climbing Kansas City Center
Mon 12:22:23 PM 39.5333 -94.3356 35° Northeast 408 470 15,900 2,226 Climbing Kansas City Center
Mon 12:23:25 PM 39.6261 -94.2533 34° Northeast 421 484 18,300 2,195 Climbing Kansas City Center
Mon 12:24:26 PM 39.7372 -94.1553 34° Northeast 428 493 20,400 1,902 Climbing Kansas City Center
Mon 12:25:28 PM 39.8378 -94.0686 33° Northeast 433 498 22,200 1,500 Climbing Kansas City Center
Mon 12:26:30 PM 39.9453 -93.9858 31° Northeast 447 514 23,500 1,258 Climbing Kansas City Center
Mon 12:27:32 PM 40.0589 -93.9017 30° Northeast 467 537 24,800 1,122 Climbing Kansas City Center
Mon 12:28:33 PM 40.1739 -93.8197 29° Northeast 472 543 25,800 1,024 Climbing Kansas City Center
Mon 12:29:35 PM 40.2325 -93.6711 63° Northeast 467 537 26,900 581 Climbing Kansas City Center
Mon 12:30:37 PM 40.2147 -93.5100 98° East 450 518 27,000 48 Climbing Kansas City Center
Mon 12:31:39 PM 40.1889 -93.3139 100° East 459 528 27,000  Level Kansas City Center
Mon 12:32:40 PM 40.1650 -93.1528 101° East 458 527 27,000  Level Kansas City Center
Mon 12:33:42 PM 40.1358 -92.9967 104° East 468 539 27,000  Level Kansas City Center
Mon 12:34:44 PM 40.1003 -92.8128 104° East 467 537 27,000  Level Kansas City Center
Mon 12:35:45 PM 40.0931 -92.6481 93° East 494 568 27,000 585 Level Kansas City Center
Mon 12:36:47 PM 40.1614 -92.4600 65° Northeast 516 594 28,200 1,210 Climbing Kansas City Center
Mon 12:37:49 PM 40.2206 -92.3017 64° Northeast 508 585 29,500 1,113 Climbing Kansas City Center
Mon 12:38:51 PM 40.2792 -92.1403 65° Northeast 502 578 30,500 976 Climbing Kansas City Center
Mon 12:39:52 PM 40.3375 -91.9764 65° Northeast 503 579 31,500 1,073 Climbing Kansas City Center
Mon 12:40:54 PM 40.4078 -91.7786 65° Northeast 503 579 32,700 726 Climbing Kansas City Center
Mon 12:41:56 PM 40.4658 -91.6161 65° Northeast 499 574 33,000 157 Climbing Kansas City Center
Mon 12:42:49 PM 40.5117 -91.4892 65° Northeast 488 562 33,000  Level Chicago Center
Mon 12:43:51 PM 40.5669 -91.3336 65° Northeast 476 548 33,000  Level Chicago Center
Mon 12:44:53 PM 40.6294 -91.1533 65° Northeast 476 548 33,000  Level Chicago Center
Mon 12:45:54 PM 40.6844 -90.9933 66° East 479 551 33,000 -585 Level Chicago Center
Mon 12:46:56 PM 40.7419 -90.8286 65° Northeast 489 563 31,800 -1,258 Descending Chicago Center
Mon 12:47:58 PM 40.7989 -90.6611 66° East 499 574 30,400 -1,355 Descending Chicago Center
Mon 12:49:00 PM 40.8569 -90.4919 66° East 502 578 29,000 -1,500 Descending Chicago Center
Mon 12:50:02 PM 40.9272 -90.2875 65° Northeast 503 579 27,300 -1,500 Descending Chicago Center
Mon 12:51:04 PM 40.9828 -90.1264 65° Northeast 500 575 25,900 -1,392 Descending Chicago Center
Mon 12:52:07 PM 41.0400 -89.9542 66° East 484 557 24,400 -912 Descending Chicago Center
Mon 12:53:09 PM 41.0936 -89.7906 66° East 480 552 24,000 -194 Descending Chicago Center
Mon 12:54:11 PM 41.1472 -89.6281 66° East 476 548 24,000 -145 Level Chicago Center
Mon 12:55:13 PM 41.2067 -89.4733 63° Northeast 471 542 23,700 -1,403 Descending Chicago Center
Mon 12:56:15 PM 41.2697 -89.3211 61° Northeast 468 539 21,100 -2,565 Descending Chicago Center
Mon 12:57:17 PM 41.3322 -89.1608 63° Northeast 452 520 18,400 -2,516 Descending Chicago Center
Mon 12:58:19 PM 41.3883 -89.0183 62° Northeast 439 505 15,900 -2,371 Descending Chicago Center
Mon 12:59:21 PM 41.4436 -88.8856 61° Northeast 420 483 13,500 -1,548 Descending Chicago Center
Mon 01:01:00 PM 41.4940 -88.7197 68° East  Level FlightAware Approximate
Mon 01:01:25 PM 41.5544 -88.6019 68° East 375 432 11,100  Level Chicago Center
Mon 01:02:27 PM 41.5986 -88.4892 62° Northeast 348 400 10,800 -823 Descending Chicago Center
Mon 01:03:29 PM 41.6542 -88.3908 53° Northeast 336 387 9,400 -1,016 Descending Chicago Center
Mon 01:04:31 PM 41.7039 -88.3036 53° Northeast 301 346 8,700 -581 Descending Chicago Center
Mon 01:05:33 PM 41.7469 -88.2311 51° Northeast 253 291 8,200 -774 Descending Chicago Center
Mon 01:06:35 PM 41.7928 -88.1514 52° Northeast 229 264 7,100 -532 Descending Chicago Center
Mon 01:07:37 PM 41.8364 -88.0897 46° Northeast 231 266 7,100  Level Chicago Center
Mon 01:08:39 PM 41.8992 -88.0858 North 227 261 7,100  Level Chicago Center
Mon 01:09:41 PM 41.9597 -88.0794 North 222 255 7,100 -97 Level Chicago Center
Mon 01:10:43 PM 42.0089 -88.1097 335° Northwest 207 238 6,900 -677 Descending Chicago Center
Mon 01:11:45 PM 42.0494 -88.1556 320° Northwest 193 222 5,700 -1,355 Descending Chicago Center
Mon 01:12:47 PM 42.0928 -88.2086 318° Northwest 181 208 4,100 -912 Descending Chicago Center
Mon 01:13:50 PM 42.1403 -88.1739 28° Northeast 218 251 3,800 -528 Descending Chicago Center
Mon 01:14:52 PM 42.1447 -88.1106 85° East 219 252 3,000 -696 Descending Chicago Center
Mon 01:15:42 PM 42.1167 -88.0667 131° Southeast 178 205 2,500 -600 Descending Chicago TRACON

Login

Don't have an account? Register now (free) for customized features, flight alerts, and more!